Time;durP1;ratioP1;P1;durP2;ratioP2;P2;SDS_P1;SDS_P2;PMS_P1;PMS_P2;Temp;Humidity;BMP_temperature;BMP_pressure;BME280_temperature;BME280_humidity;BME280_pressure;Samples;Min_cycle;Max_cycle;Signal;HPM_P1;HPM_P2
2022/04/10 00:01:38;;;;;;;5.40;2.05;;;3.70;99.90;;;;;;5032726;28;20510;-68
2022/04/10 00:04:05;;;;;;;4.10;2.08;;;3.60;99.90;;;;;;5032963;28;20026;-70
2022/04/10 00:06:30;;;;;;;6.28;2.35;;;3.60;99.90;;;;;;5032041;28;20037;-68
2022/04/10 00:08:57;;;;;;;4.78;2.20;;;3.70;99.90;;;;;;5033239;28;20029;-70
2022/04/10 00:11:22;;;;;;;6.50;2.30;;;3.70;99.90;;;;;;5037503;28;20059;-70
2022/04/10 00:13:48;;;;;;;5.90;2.30;;;3.70;99.90;;;;;;5032385;28;20037;-69
2022/04/10 00:16:14;;;;;;;4.85;2.20;;;3.70;99.90;;;;;;5031816;28;20033;-70
2022/04/10 00:18:40;;;;;;;5.07;1.98;;;3.70;99.90;;;;;;5049250;28;20040;-70
2022/04/10 00:21:07;;;;;;;5.07;2.65;;;3.70;99.90;;;;;;5038553;28;20394;-69
2022/04/10 00:23:33;;;;;;;4.45;1.80;;;3.70;99.90;;;;;;5023735;28;20025;-69
2022/04/10 00:25:59;;;;;;;4.10;2.13;;;3.70;99.90;;;;;;5042556;28;20386;-68
2022/04/10 00:28:25;;;;;;;4.57;2.08;;;3.70;99.90;;;;;;5029677;28;20029;-69
2022/04/10 00:30:51;;;;;;;7.55;2.42;;;3.80;99.90;;;;;;5031543;28;20099;-70
2022/04/10 00:33:17;;;;;;;4.35;2.25;;;3.80;99.90;;;;;;5031534;28;20029;-72
2022/04/10 00:35:42;;;;;;;4.55;2.47;;;3.80;99.90;;;;;;5027180;28;20414;-69
2022/04/10 00:38:08;;;;;;;5.20;2.28;;;3.70;99.90;;;;;;5032705;28;20029;-69
2022/04/10 00:40:34;;;;;;;4.68;2.25;;;3.70;99.90;;;;;;5030731;28;20384;-69
2022/04/10 00:43:00;;;;;;;5.65;2.30;;;3.70;99.90;;;;;;5031780;28;20024;-69
2022/04/10 00:45:25;;;;;;;4.82;2.20;;;3.70;99.90;;;;;;5029445;28;20041;-69
2022/04/10 00:47:51;;;;;;;7.60;2.55;;;3.70;99.90;;;;;;5030392;28;20084;-70
2022/04/10 00:50:18;;;;;;;5.82;2.58;;;3.70;99.90;;;;;;5028112;28;20104;-69
2022/04/10 00:52:46;;;;;;;5.80;2.15;;;3.70;99.90;;;;;;5025343;28;20029;-70
2022/04/10 00:55:12;;;;;;;4.88;2.22;;;3.60;99.90;;;;;;5029153;28;20021;-70
2022/04/10 00:57:38;;;;;;;5.55;2.25;;;3.60;99.90;;;;;;5027950;28;20048;-67
2022/04/10 01:00:09;;;;;;;4.03;2.03;;;3.60;99.90;;;;;;5030684;28;20097;-68
2022/04/10 01:02:36;;;;;;;4.38;2.47;;;3.60;99.90;;;;;;5040715;28;20033;-67
2022/04/10 01:05:03;;;;;;;3.63;2.10;;;3.60;99.90;;;;;;5032065;28;20029;-68
2022/04/10 01:07:29;;;;;;;5.57;2.10;;;3.60;99.90;;;;;;5032319;28;20041;-69
2022/04/10 01:09:55;;;;;;;4.68;2.17;;;3.60;99.90;;;;;;5030530;28;20026;-68
2022/04/10 01:12:21;;;;;;;4.85;2.13;;;3.60;99.90;;;;;;5030307;28;20037;-68
2022/04/10 01:14:47;;;;;;;4.50;2.22;;;3.60;99.90;;;;;;5029660;28;20033;-68
2022/04/10 01:17:14;;;;;;;4.82;2.30;;;3.50;99.90;;;;;;5026349;28;20116;-69
2022/04/10 01:19:41;;;;;;;4.43;2.35;;;3.60;99.90;;;;;;5031522;28;20022;-68
2022/04/10 01:22:08;;;;;;;4.68;2.17;;;3.50;99.90;;;;;;5035561;28;20024;-68
2022/04/10 01:24:37;;;;;;;5.45;2.40;;;3.50;99.90;;;;;;5033127;28;20504;-68
2022/04/10 01:27:04;;;;;;;3.83;2.35;;;3.40;99.90;;;;;;5037953;28;20048;-69
2022/04/10 01:29:30;;;;;;;4.90;2.47;;;3.50;99.90;;;;;;5039926;28;20104;-68
2022/04/10 01:31:56;;;;;;;7.00;2.40;;;3.40;99.90;;;;;;5031876;28;20064;-68
2022/04/10 01:34:23;;;;;;;8.02;2.78;;;3.50;99.90;;;;;;5033661;28;20390;-67
2022/04/10 01:36:49;;;;;;;5.68;2.50;;;3.40;99.90;;;;;;5035212;28;20029;-69
2022/04/10 01:39:15;;;;;;;5.35;2.38;;;3.50;99.90;;;;;;5033788;28;20021;-68
2022/04/10 01:41:42;;;;;;;5.10;2.00;;;3.50;99.90;;;;;;5036806;28;20486;-68
2022/04/10 01:44:09;;;;;;;3.05;2.20;;;3.50;99.90;;;;;;5034784;28;20348;-69
2022/04/10 01:46:36;;;;;;;7.18;2.38;;;3.50;99.90;;;;;;5029420;28;20044;-69
2022/04/10 01:49:03;;;;;;;4.65;2.50;;;3.50;99.90;;;;;;5034435;28;20033;-69
2022/04/10 01:51:29;;;;;;;5.15;2.88;;;3.60;99.90;;;;;;5032741;28;20037;-68
2022/04/10 01:53:55;;;;;;;7.35;2.53;;;3.60;99.90;;;;;;5028968;28;20026;-67
2022/04/10 01:56:21;;;;;;;6.15;2.28;;;3.60;99.90;;;;;;5031366;28;20133;-68
2022/04/10 01:58:48;;;;;;;4.55;2.80;;;3.60;99.90;;;;;;5038008;28;20100;-68
2022/04/10 02:01:16;;;;;;;6.63;2.92;;;3.70;99.90;;;;;;5030162;28;20036;-69
2022/04/10 02:03:43;;;;;;;5.55;2.40;;;3.70;99.90;;;;;;5033102;28;20423;-69
2022/04/10 02:06:11;;;;;;;5.72;2.33;;;3.70;99.90;;;;;;5034429;28;20021;-69
2022/04/10 02:08:37;;;;;;;3.63;2.28;;;3.70;99.90;;;;;;5033060;28;20065;-68
2022/04/10 02:11:14;;;;;;;5.85;2.47;;;3.70;99.90;;;;;;5034454;28;20398;-69
2022/04/10 02:13:41;;;;;;;7.03;2.78;;;3.70;99.90;;;;;;5034518;28;20033;-68
2022/04/10 02:16:10;;;;;;;4.70;2.85;;;3.70;99.90;;;;;;5032149;28;20032;-70
2022/04/10 02:18:36;;;;;;;8.88;2.55;;;3.70;99.90;;;;;;5034536;28;20044;-69
2022/04/10 02:21:03;;;;;;;6.03;2.95;;;3.70;99.90;;;;;;5038318;28;20108;-69
2022/04/10 02:23:28;;;;;;;4.60;2.67;;;3.70;99.90;;;;;;5034314;28;20036;-69
2022/04/10 02:25:54;;;;;;;3.35;2.20;;;3.70;99.90;;;;;;5031897;28;20022;-69
2022/04/10 02:28:20;;;;;;;4.28;2.20;;;3.60;99.90;;;;;;5031538;28;20029;-69
2022/04/10 02:30:46;;;;;;;4.90;2.80;;;3.60;99.90;;;;;;5032442;28;20047;-69
2022/04/10 02:33:11;;;;;;;4.25;2.65;;;3.50;99.90;;;;;;5032757;28;20471;-69
2022/04/10 02:35:37;;;;;;;5.25;2.30;;;3.50;99.90;;;;;;5034773;28;20474;-69
2022/04/10 02:38:03;;;;;;;6.25;2.60;;;3.40;99.90;;;;;;5035097;28;20558;-69
2022/04/10 02:40:29;;;;;;;5.32;2.65;;;3.40;99.90;;;;;;5031329;28;20557;-69
2022/04/10 02:42:54;;;;;;;5.20;2.55;;;3.40;99.90;;;;;;5035621;28;20521;-69
2022/04/10 02:45:20;;;;;;;4.75;2.38;;;3.40;99.90;;;;;;5038524;28;20108;-69
2022/04/10 02:47:46;;;;;;;6.85;2.65;;;3.40;99.90;;;;;;5033357;28;20048;-70
2022/04/10 02:50:13;;;;;;;7.03;2.60;;;3.30;99.90;;;;;;5031244;28;20033;-69
2022/04/10 02:52:40;;;;;;;4.57;2.38;;;3.30;99.90;;;;;;5030883;28;20108;-69
2022/04/10 02:55:07;;;;;;;6.03;2.20;;;3.30;99.90;;;;;;5029680;28;20032;-69
2022/04/10 02:57:33;;;;;;;4.03;2.22;;;3.30;99.90;;;;;;5026726;28;20029;-71
2022/04/10 02:59:59;;;;;;;5.75;2.70;;;3.20;99.90;;;;;;5027631;28;20537;-71
2022/04/10 03:02:25;;;;;;;4.35;2.20;;;3.20;99.90;;;;;;5033963;28;20041;-70
2022/04/10 03:04:50;;;;;;;5.38;2.70;;;3.20;99.90;;;;;;5031126;28;20029;-69
2022/04/10 03:07:16;;;;;;;7.72;2.47;;;3.20;99.90;;;;;;5025918;28;20061;-69
2022/04/10 03:09:41;;;;;;;3.35;2.20;;;3.10;99.90;;;;;;5029436;28;20549;-68
2022/04/10 03:12:08;;;;;;;5.50;2.30;;;3.10;99.90;;;;;;5024792;28;20099;-69
2022/04/10 03:14:37;;;;;;;5.60;2.63;;;3.10;99.90;;;;;;5026473;28;20029;-69
2022/04/10 03:17:12;;;;;;;4.72;2.50;;;3.00;99.90;;;;;;5022748;28;20045;-69
2022/04/10 03:19:37;;;;;;;6.18;2.42;;;3.00;99.90;;;;;;5022645;28;20478;-69
2022/04/10 03:22:03;;;;;;;6.47;2.33;;;3.00;99.90;;;;;;5026833;28;20037;-70
2022/04/10 03:24:29;;;;;;;4.88;2.72;;;2.90;99.90;;;;;;5026820;28;20098;-69
2022/04/10 03:26:54;;;;;;;5.88;2.53;;;2.80;99.90;;;;;;5028340;28;20030;-69
2022/04/10 03:29:20;;;;;;;7.40;2.42;;;2.80;99.90;;;;;;5026830;28;20029;-69
2022/04/10 03:31:46;;;;;;;8.10;3.38;;;2.70;99.90;;;;;;5026820;28;20045;-68
2022/04/10 03:34:11;;;;;;;3.83;2.28;;;2.70;99.90;;;;;;5025941;28;20513;-68
2022/04/10 03:36:37;;;;;;;5.93;2.38;;;2.60;99.90;;;;;;5029194;28;20041;-69
2022/04/10 03:39:03;;;;;;;5.75;2.85;;;2.60;99.90;;;;;;5026406;28;20493;-68
2022/04/10 03:41:28;;;;;;;5.03;2.40;;;2.50;99.90;;;;;;5029419;28;20036;-69
2022/04/10 03:43:54;;;;;;;5.03;2.65;;;2.50;99.90;;;;;;5028991;28;20033;-68
2022/04/10 03:46:19;;;;;;;7.28;3.40;;;2.50;99.90;;;;;;5032230;28;20096;-67
2022/04/10 03:48:45;;;;;;;5.60;2.90;;;2.40;99.90;;;;;;5030445;28;20140;-68
2022/04/10 03:51:11;;;;;;;6.03;2.83;;;2.40;99.90;;;;;;5028649;28;20029;-69
2022/04/10 03:53:40;;;;;;;5.35;2.47;;;2.40;99.90;;;;;;5024003;28;20032;-67
2022/04/10 03:56:08;;;;;;;6.07;2.65;;;2.40;99.90;;;;;;5024831;28;20438;-69
2022/04/10 03:58:36;;;;;;;8.10;3.17;;;2.40;99.90;;;;;;5025740;28;20053;-68
2022/04/10 04:01:02;;;;;;;7.20;2.65;;;2.40;99.90;;;;;;5043491;28;20021;-68
2022/04/10 04:03:31;;;;;;;7.43;3.42;;;2.30;99.90;;;;;;5022979;28;20148;-68
2022/04/10 04:06:03;;;;;;;5.55;2.75;;;2.30;99.90;;;;;;5027918;28;20120;-69
2022/04/10 04:08:28;;;;;;;5.65;2.72;;;2.30;99.90;;;;;;5027891;28;20064;-69
2022/04/10 04:10:54;;;;;;;5.88;3.10;;;2.30;99.90;;;;;;5028019;28;20057;-69
2022/04/10 04:13:20;;;;;;;6.70;3.08;;;2.20;99.90;;;;;;5029670;28;20030;-70
2022/04/10 04:15:48;;;;;;;7.50;2.47;;;2.20;99.90;;;;;;5023137;28;20571;-69
2022/04/10 04:18:17;;;;;;;8.45;3.42;;;2.20;99.90;;;;;;5029101;28;20093;-70
2022/04/10 04:20:49;;;;;;;4.25;2.72;;;2.20;99.90;;;;;;5033236;28;20095;-69
2022/04/10 04:23:20;;;;;;;8.32;3.08;;;2.20;99.90;;;;;;5030144;28;20026;-69
2022/04/10 04:25:49;;;;;;;9.38;2.97;;;2.10;99.90;;;;;;5025731;28;20036;-70
2022/04/10 04:28:18;;;;;;;5.93;2.80;;;2.10;99.90;;;;;;5021082;28;20505;-69
2022/04/10 04:30:43;;;;;;;5.18;2.80;;;2.10;99.90;;;;;;5026304;28;20032;-70
2022/04/10 04:33:09;;;;;;;4.35;2.90;;;2.10;99.90;;;;;;5027052;28;20037;-70
2022/04/10 04:35:38;;;;;;;6.28;3.17;;;2.10;99.90;;;;;;5027636;28;20104;-70
2022/04/10 04:38:03;;;;;;;6.22;2.92;;;2.00;99.90;;;;;;5028964;28;20025;-69
2022/04/10 04:40:32;;;;;;;5.85;2.90;;;2.00;99.90;;;;;;5028552;28;20036;-69
2022/04/10 04:42:58;;;;;;;5.20;2.85;;;2.00;99.90;;;;;;5025158;28;20406;-70
2022/04/10 04:45:23;;;;;;;4.93;3.08;;;2.00;99.90;;;;;;5025251;28;20026;-68
2022/04/10 04:47:49;;;;;;;8.90;3.83;;;2.00;99.90;;;;;;5026583;28;20047;-70
2022/04/10 04:50:15;;;;;;;8.27;3.25;;;2.00;99.90;;;;;;5027634;28;20035;-69
2022/04/10 04:52:40;;;;;;;7.05;3.60;;;2.00;99.90;;;;;;5025345;28;20055;-70
2022/04/10 04:55:09;;;;;;;7.38;3.03;;;2.00;99.90;;;;;;5025623;28;20025;-69
2022/04/10 04:57:34;;;;;;;7.45;3.17;;;1.90;99.90;;;;;;5023893;28;20033;-70
2022/04/10 05:00:06;;;;;;;8.77;4.18;;;2.00;99.90;;;;;;5033533;28;20508;-68
2022/04/10 05:02:32;;;;;;;7.22;3.60;;;2.00;99.90;;;;;;5031173;28;20492;-70
2022/04/10 05:04:57;;;;;;;6.55;3.28;;;2.00;99.90;;;;;;5037222;28;20096;-70
2022/04/10 05:07:23;;;;;;;9.30;3.38;;;2.00;99.90;;;;;;5033381;28;20060;-70
2022/04/10 05:09:49;;;;;;;8.27;3.35;;;2.00;99.90;;;;;;5032811;28;20030;-70
2022/04/10 05:12:14;;;;;;;7.32;3.75;;;2.00;99.90;;;;;;5027677;28;20032;-68
2022/04/10 05:14:45;;;;;;;10.52;4.82;;;2.10;99.90;;;;;;5033955;28;20041;-69
2022/04/10 05:17:17;;;;;;;6.53;3.50;;;2.10;99.90;;;;;;5033951;28;20482;-68
2022/04/10 05:19:42;;;;;;;4.90;3.38;;;2.20;99.90;;;;;;5034887;28;20475;-67
2022/04/10 05:22:08;;;;;;;8.02;3.63;;;2.20;99.90;;;;;;5033877;28;20108;-68
2022/04/10 05:24:34;;;;;;;7.88;3.72;;;2.20;99.90;;;;;;5032274;28;20021;-70
2022/04/10 05:26:59;;;;;;;6.05;3.45;;;2.30;99.90;;;;;;5033753;28;20052;-68
2022/04/10 05:29:25;;;;;;;8.02;3.50;;;2.30;99.90;;;;;;5031312;28;20034;-74
2022/04/10 05:31:51;;;;;;;6.05;3.70;;;2.40;99.90;;;;;;5029442;28;20033;-74
2022/04/10 05:34:16;;;;;;;6.32;3.85;;;2.50;99.90;;;;;;5034229;28;20056;-71
2022/04/10 05:36:42;;;;;;;6.30;4.00;;;2.60;99.90;;;;;;5034582;28;20556;-71
2022/04/10 05:39:10;;;;;;;5.88;3.22;;;2.80;99.90;;;;;;5030706;28;20113;-69
2022/04/10 05:41:36;;;;;;;6.40;4.10;;;2.90;99.90;;;;;;5026523;28;20032;-69
2022/04/10 05:44:02;;;;;;;9.30;4.13;;;3.10;99.90;;;;;;5029753;28;20021;-69
2022/04/10 05:46:27;;;;;;;6.93;4.22;;;3.10;99.90;;;;;;5030595;28;20104;-70
2022/04/10 05:48:53;;;;;;;8.20;4.15;;;3.30;99.90;;;;;;5026602;28;20022;-69
2022/04/10 05:51:18;;;;;;;4.68;2.92;;;3.40;99.90;;;;;;5034909;28;20021;-70
2022/04/10 05:53:44;;;;;;;5.80;3.13;;;3.50;99.90;;;;;;5033235;28;20017;-69
2022/04/10 05:56:22;;;;;;;10.27;4.05;;;3.60;99.90;;;;;;5033948;28;20072;-70
2022/04/10 05:58:48;;;;;;;6.13;4.10;;;3.70;99.90;;;;;;5023057;28;20030;-69
2022/04/10 06:01:13;;;;;;;6.65;3.90;;;3.80;99.90;;;;;;5023073;28;20032;-70
2022/04/10 06:03:42;;;;;;;6.90;4.05;;;3.80;99.90;;;;;;5029610;28;20071;-70
2022/04/10 06:06:11;;;;;;;5.13;3.53;;;3.80;99.90;;;;;;5030823;28;20490;-70
2022/04/10 06:08:36;;;;;;;6.45;3.40;;;3.90;99.90;;;;;;5029048;28;20111;-69
2022/04/10 06:11:03;;;;;;;6.93;3.55;;;4.00;99.90;;;;;;5037110;28;21342;-71
2022/04/10 06:13:28;;;;;;;5.78;3.42;;;4.00;99.90;;;;;;5026912;28;20037;-70
2022/04/10 06:15:54;;;;;;;4.40;3.05;;;4.10;99.90;;;;;;5028842;28;20041;-70
2022/04/10 06:18:20;;;;;;;6.85;3.55;;;4.20;99.90;;;;;;5029709;28;20025;-71
2022/04/10 06:20:45;;;;;;;7.82;3.45;;;4.30;99.90;;;;;;5030490;28;20040;-70
2022/04/10 06:23:12;;;;;;;7.78;3.85;;;4.40;99.90;;;;;;5030657;28;20022;-70
2022/04/10 06:25:41;;;;;;;9.73;4.05;;;4.40;99.90;;;;;;5021537;28;20022;-70
2022/04/10 06:28:15;;;;;;;8.82;3.30;;;4.50;99.90;;;;;;5048375;28;20052;-70
2022/04/10 06:30:43;;;;;;;5.07;3.25;;;4.60;99.90;;;;;;5031575;28;20032;-69
2022/04/10 06:33:09;;;;;;;9.23;3.22;;;4.60;99.90;;;;;;5030265;28;20026;-70
2022/04/10 06:35:34;;;;;;;6.90;3.50;;;4.70;99.90;;;;;;5029695;28;20061;-70
2022/04/10 06:38:00;;;;;;;5.55;3.75;;;4.80;99.90;;;;;;5027321;28;20033;-70
2022/04/10 06:40:26;;;;;;;5.43;3.45;;;4.80;99.90;;;;;;5028119;28;20017;-68
2022/04/10 06:42:51;;;;;;;5.32;3.25;;;4.90;99.90;;;;;;5033442;28;20022;-69
2022/04/10 06:45:17;;;;;;;5.18;3.08;;;4.90;99.90;;;;;;5026387;28;20029;-69
2022/04/10 06:47:43;;;;;;;5.78;3.20;;;5.00;99.90;;;;;;5030545;28;20044;-69
2022/04/10 06:50:08;;;;;;;5.63;3.42;;;5.10;99.90;;;;;;5031286;28;20021;-68
2022/04/10 06:52:40;;;;;;;4.80;3.03;;;5.20;99.90;;;;;;5032002;28;20080;-69
2022/04/10 06:55:09;;;;;;;7.93;4.03;;;5.30;99.90;;;;;;5027359;28;20083;-70
2022/04/10 06:57:35;;;;;;;5.70;3.67;;;5.40;99.90;;;;;;5028545;28;20067;-68
2022/04/10 07:00:00;;;;;;;6.90;3.63;;;5.50;99.90;;;;;;5040623;28;20506;-67
2022/04/10 07:02:26;;;;;;;6.13;3.42;;;5.60;99.90;;;;;;5029278;28;20077;-68
2022/04/10 07:04:55;;;;;;;7.72;3.70;;;5.60;99.90;;;;;;5032016;28;20025;-69
2022/04/10 07:07:21;;;;;;;6.32;3.15;;;5.70;99.90;;;;;;5030410;28;20080;-68
2022/04/10 07:09:53;;;;;;;8.27;3.10;;;5.80;99.90;;;;;;5029283;28;20520;-70
2022/04/10 07:12:19;;;;;;;7.00;3.10;;;5.90;99.90;;;;;;5025560;28;20620;-69
2022/04/10 07:14:44;;;;;;;6.53;3.47;;;6.00;99.90;;;;;;5028415;28;20115;-69
2022/04/10 07:17:11;;;;;;;6.30;3.75;;;6.10;99.90;;;;;;5024469;28;20032;-69
2022/04/10 07:19:39;;;;;;;4.70;3.22;;;6.20;99.90;;;;;;5026105;28;20074;-69
2022/04/10 07:24:52;;;;;;;8.07;3.00;;;6.40;99.90;;;;;;5034862;28;20083;-68
2022/04/10 07:27:18;;;;;;;4.90;3.15;;;6.60;99.90;;;;;;5032135;28;20038;-68
2022/04/10 07:29:43;;;;;;;7.55;3.97;;;6.60;99.90;;;;;;5030031;28;20041;-70
2022/04/10 07:32:09;;;;;;;4.95;2.92;;;6.70;99.90;;;;;;5027154;28;20094;-69
2022/04/10 07:34:34;;;;;;;5.22;3.00;;;6.80;99.90;;;;;;5021295;28;20037;-68
2022/04/10 07:37:00;;;;;;;5.45;3.08;;;6.90;99.90;;;;;;5019653;28;20080;-69
2022/04/10 07:39:26;;;;;;;5.72;3.58;;;7.00;99.90;;;;;;5023602;28;20025;-68
2022/04/10 07:41:52;;;;;;;6.28;3.05;;;7.20;99.90;;;;;;5019490;28;20029;-69
2022/04/10 07:44:17;;;;;;;5.43;3.35;;;7.30;99.90;;;;;;5030422;28;20029;-70
2022/04/10 07:49:27;;;;;;;5.35;3.05;;;7.50;99.90;;;;;;5027120;28;20035;-69
2022/04/10 07:51:52;;;;;;;5.05;3.25;;;7.50;99.90;;;;;;5029694;28;20117;-69
2022/04/10 07:54:18;;;;;;;5.82;3.47;;;7.70;99.90;;;;;;5032818;28;20425;-69
2022/04/10 07:56:44;;;;;;;5.38;3.33;;;7.80;99.90;;;;;;5027801;28;20022;-69
2022/04/10 07:59:10;;;;;;;8.05;3.50;;;7.80;99.90;;;;;;5029527;28;20014;-69
2022/04/10 08:01:36;;;;;;;7.57;3.75;;;7.70;99.90;;;;;;5026672;28;20025;-69
2022/04/10 08:04:02;;;;;;;6.05;3.65;;;7.80;99.90;;;;;;5033346;28;20021;-70
2022/04/10 08:06:28;;;;;;;6.25;3.42;;;7.80;99.90;;;;;;5029517;28;20037;-69
2022/04/10 08:08:53;;;;;;;5.43;3.72;;;7.90;99.90;;;;;;5030912;28;20033;-69
2022/04/10 08:11:19;;;;;;;6.82;3.22;;;7.90;99.90;;;;;;5029974;28;20028;-70
2022/04/10 08:13:45;;;;;;;6.55;3.08;;;8.00;99.90;;;;;;5029031;28;20060;-69
2022/04/10 08:16:10;;;;;;;6.43;3.45;;;7.90;99.90;;;;;;5032760;28;20036;-69
2022/04/10 08:18:36;;;;;;;5.68;2.97;;;7.90;99.90;;;;;;5029206;28;20033;-69
2022/04/10 08:21:02;;;;;;;5.38;3.42;;;7.90;99.90;;;;;;5031313;28;20029;-69
2022/04/10 08:23:28;;;;;;;7.40;3.33;;;7.90;99.90;;;;;;5029232;28;20026;-69
2022/04/10 08:25:53;;;;;;;6.82;3.08;;;8.00;99.90;;;;;;5028464;28;20087;-69
2022/04/10 08:28:19;;;;;;;5.25;3.08;;;8.10;99.90;;;;;;5030507;28;20124;-69
2022/04/10 08:30:45;;;;;;;5.55;2.80;;;8.20;99.90;;;;;;5031141;28;20037;-69
2022/04/10 08:33:11;;;;;;;4.75;3.00;;;8.20;99.90;;;;;;5020516;28;20100;-68
2022/04/10 08:35:36;;;;;;;6.55;3.00;;;8.40;99.90;;;;;;5023433;28;20112;-69
2022/04/10 08:38:02;;;;;;;5.10;3.45;;;8.40;99.90;;;;;;5025963;28;20417;-69
2022/04/10 08:40:32;;;;;;;5.43;3.33;;;8.30;99.90;;;;;;5028602;28;20028;-69
2022/04/10 08:43:02;;;;;;;8.75;4.47;;;8.20;99.90;;;;;;5023050;28;20022;-69
2022/04/10 08:45:30;;;;;;;5.45;3.03;;;8.10;99.90;;;;;;5028362;28;21880;-72
2022/04/10 08:47:57;;;;;;;5.70;2.97;;;8.00;99.90;;;;;;5028264;28;20022;-68
2022/04/10 08:50:23;;;;;;;9.15;3.83;;;7.90;99.90;;;;;;5027735;28;20035;-69
2022/04/10 08:52:52;;;;;;;6.22;3.35;;;7.90;99.90;;;;;;5024246;28;20052;-67
2022/04/10 08:55:19;;;;;;;5.32;2.90;;;7.90;99.90;;;;;;5029787;28;20112;-68
2022/04/10 08:57:45;;;;;;;8.40;3.95;;;7.90;99.90;;;;;;5026101;28;20091;-68
2022/04/10 09:00:11;;;;;;;10.32;3.25;;;7.90;99.20;;;;;;5026736;28;20633;-68
2022/04/10 09:02:48;;;;;;;8.10;3.05;;;7.90;99.60;;;;;;5022714;28;20079;-68
2022/04/10 09:05:18;;;;;;;7.85;3.35;;;7.90;98.50;;;;;;5019742;28;20474;-69
2022/04/10 09:08:09;;;;;;;8.02;2.83;;;8.00;98.60;;;;;;5020898;28;20048;-68
2022/04/10 09:10:53;;;;;;;4.82;3.38;;;8.20;98.50;;;;;;5025755;28;20055;-68
2022/04/10 09:13:27;;;;;;;5.88;2.38;;;8.30;98.00;;;;;;5023061;28;20030;-68
2022/04/10 09:16:07;;;;;;;5.55;3.20;;;8.40;95.50;;;;;;5025724;28;20485;-69
2022/04/10 09:18:55;;;;;;;4.10;2.88;;;8.50;94.80;;;;;;5019872;28;20119;-69
2022/04/10 09:21:24;;;;;;;5.18;2.75;;;8.70;95.60;;;;;;5029593;28;20029;-70
2022/04/10 09:24:05;;;;;;;4.70;2.80;;;8.80;95.40;;;;;;5022547;28;20489;-68
2022/04/10 09:26:55;;;;;;;5.70;2.42;;;8.90;94.80;;;;;;5018852;28;20022;-68
2022/04/10 09:29:22;;;;;;;5.25;2.85;;;9.00;93.50;;;;;;5020637;28;20801;-68
2022/04/10 09:31:54;;;;;;;6.13;2.72;;;9.10;93.60;;;;;;5029561;28;20027;-69
2022/04/10 09:34:25;;;;;;;6.07;2.78;;;9.20;93.60;;;;;;5023752;28;20045;-69
2022/04/10 09:37:05;;;;;;;5.53;2.70;;;9.10;92.20;;;;;;5028986;28;20128;-69
2022/04/10 09:39:35;;;;;;;5.38;3.08;;;9.10;92.70;;;;;;5024754;28;20022;-69
2022/04/10 09:42:14;;;;;;;5.15;2.55;;;9.10;93.40;;;;;;5023549;28;20138;-68
2022/04/10 09:44:40;;;;;;;6.03;2.83;;;9.10;92.20;;;;;;5028115;28;20037;-69
2022/04/10 09:47:10;;;;;;;6.10;2.70;;;9.20;93.10;;;;;;5034345;28;20052;-69
2022/04/10 09:49:45;;;;;;;5.32;3.05;;;9.20;92.90;;;;;;5031871;28;20376;-69
2022/04/10 09:52:23;;;;;;;6.75;2.67;;;9.20;92.60;;;;;;5023788;28;20509;-69
2022/04/10 09:54:51;;;;;;;5.57;2.83;;;9.30;93.20;;;;;;5027409;28;20025;-70
2022/04/10 09:57:22;;;;;;;4.45;1.98;;;9.20;91.90;;;;;;5025172;28;20029;-70
2022/04/10 09:59:51;;;;;;;4.97;1.90;;;9.20;87.40;;;;;;5034208;28;20474;-70
2022/04/10 10:02:19;;;;;;;4.85;1.83;;;9.10;81.80;;;;;;5028371;28;20376;-71
2022/04/10 10:04:46;;;;;;;7.18;2.00;;;9.20;80.10;;;;;;5026819;28;20104;-72
2022/04/10 10:07:27;;;;;;;5.35;1.88;;;9.20;81.60;;;;;;5031041;28;20477;-71
2022/04/10 10:09:56;;;;;;;6.43;2.00;;;9.30;80.80;;;;;;5018813;28;20048;-72
2022/04/10 10:12:22;;;;;;;5.43;2.13;;;9.40;81.90;;;;;;5022664;28;20455;-72
2022/04/10 10:14:48;;;;;;;4.70;2.33;;;9.40;83.00;;;;;;5024762;28;20096;-71
2022/04/10 10:17:14;;;;;;;6.97;1.95;;;9.40;84.30;;;;;;5030177;28;20041;-72
2022/04/10 10:19:43;;;;;;;3.78;2.00;;;9.30;86.50;;;;;;5021790;28;20382;-70
2022/04/10 10:22:15;;;;;;;3.80;2.35;;;9.20;92.20;;;;;;5026953;28;20029;-71
2022/04/10 10:25:09;;;;;;;5.88;2.35;;;9.00;94.80;;;;;;5025471;28;20049;-71
2022/04/10 10:27:52;;;;;;;4.03;1.80;;;8.90;94.90;;;;;;5025410;28;20029;-71
2022/04/10 10:30:39;;;;;;;4.72;1.45;;;8.70;93.10;;;;;;5029077;28;20040;-70
2022/04/10 10:33:22;;;;;;;3.75;1.73;;;8.60;93.30;;;;;;5031898;28;20036;-70
2022/04/10 10:35:49;;;;;;;5.07;1.77;;;8.70;93.00;;;;;;5028330;28;20478;-70
2022/04/10 10:38:30;;;;;;;3.30;1.50;;;8.80;92.00;;;;;;5034634;28;20522;-71
2022/04/10 10:41:09;;;;;;;3.50;1.52;;;9.00;91.80;;;;;;5029642;28;20022;-72
2022/04/10 10:43:34;;;;;;;4.05;1.70;;;9.20;90.50;;;;;;5025221;28;20109;-71
2022/04/10 10:46:00;;;;;;;6.22;1.80;;;9.40;87.10;;;;;;5031867;28;20553;-68
2022/04/10 10:48:35;;;;;;;4.90;1.63;;;9.70;92.80;;;;;;5031711;28;20033;-67
2022/04/10 10:51:24;;;;;;;3.60;1.63;;;10.00;91.50;;;;;;5029892;28;20025;-68
2022/04/10 10:53:57;;;;;;;3.90;1.45;;;10.20;92.60;;;;;;5029984;28;20037;-71
2022/04/10 10:56:36;;;;;;;4.07;1.77;;;10.50;88.50;;;;;;5021973;28;20159;-72
2022/04/10 10:59:21;;;;;;;4.53;1.50;;;10.60;86.50;;;;;;5027708;28;20587;-72
2022/04/10 11:02:07;;;;;;;5.82;2.40;;;10.60;85.20;;;;;;5024140;28;20022;-72
2022/04/10 11:04:55;;;;;;;3.88;2.15;;;10.30;90.30;;;;;;5030142;28;20029;-72
2022/04/10 11:07:27;;;;;;;4.97;2.50;;;9.40;92.20;;;;;;5027404;28;20041;-72
2022/04/10 11:10:04;;;;;;;8.75;3.08;;;9.10;93.40;;;;;;5030816;28;20021;-71
2022/04/10 11:12:35;;;;;;;3.92;2.60;;;8.70;95.40;;;;;;5028157;28;20394;-70
2022/04/10 11:15:21;;;;;;;4.43;2.90;;;8.40;96.20;;;;;;5025596;28;20627;-72
2022/04/10 11:17:47;;;;;;;3.28;2.35;;;8.00;96.00;;;;;;5031621;28;20044;-71
2022/04/10 11:20:16;;;;;;;5.05;2.00;;;7.90;96.00;;;;;;5030460;28;20107;-74
2022/04/10 11:22:48;;;;;;;4.63;2.85;;;7.80;95.50;;;;;;5020411;28;20497;-73
2022/04/10 11:25:18;;;;;;;5.65;2.55;;;7.80;95.50;;;;;;5029416;28;20105;-73
2022/04/10 11:27:45;;;;;;;4.45;2.85;;;7.90;95.60;;;;;;5031174;28;20052;-74
2022/04/10 11:30:19;;;;;;;9.85;5.43;;;8.00;96.40;;;;;;5028765;28;20048;-74
2022/04/10 11:32:50;;;;;;;7.75;3.15;;;8.00;96.10;;;;;;5022847;28;20030;-74
2022/04/10 11:35:20;;;;;;;4.72;2.65;;;7.90;94.70;;;;;;5022442;28;20022;-73
2022/04/10 11:37:50;;;;;;;4.53;2.60;;;7.80;95.20;;;;;;5029367;28;20406;-75
2022/04/10 11:40:39;;;;;;;6.40;2.50;;;7.90;95.50;;;;;;5032267;28;20033;-74
2022/04/10 11:43:07;;;;;;;7.88;2.97;;;7.90;95.30;;;;;;5033346;28;20036;-74
2022/04/10 11:45:33;;;;;;;4.00;2.40;;;8.00;93.70;;;;;;5029445;28;20021;-73
2022/04/10 11:48:00;;;;;;;3.65;2.65;;;8.20;94.60;;;;;;5029208;28;20030;-72
2022/04/10 11:50:27;;;;;;;5.03;2.22;;;8.40;94.60;;;;;;5051064;28;21256;-73
2022/04/10 11:53:03;;;;;;;3.42;1.90;;;8.60;94.20;;;;;;5045595;28;20458;-72
2022/04/10 11:55:30;;;;;;;6.13;1.85;;;8.70;92.80;;;;;;5042605;28;20083;-72
2022/04/10 11:57:57;;;;;;;3.97;1.92;;;8.80;91.10;;;;;;5046912;28;20025;-73
2022/04/10 12:00:22;;;;;;;4.32;2.03;;;8.80;84.80;;;;;;5042273;28;20024;-72
2022/04/10 12:02:54;;;;;;;5.97;2.70;;;8.80;85.50;;;;;;5044029;28;20032;-73
2022/04/10 12:05:21;;;;;;;4.85;2.15;;;9.00;86.50;;;;;;5044508;28;20032;-73
2022/04/10 12:07:47;;;;;;;5.40;2.40;;;9.10;86.50;;;;;;5041988;28;20393;-73
2022/04/10 12:10:21;;;;;;;8.07;2.25;;;9.20;83.40;;;;;;5043225;28;20033;-73
2022/04/10 12:12:47;;;;;;;6.07;2.65;;;9.40;81.80;;;;;;5047144;28;20453;-71
2022/04/10 12:15:16;;;;;;;7.78;2.50;;;9.40;81.60;;;;;;5046130;28;20028;-71
2022/04/10 12:17:41;;;;;;;4.75;2.58;;;9.70;82.30;;;;;;5043269;28;20024;-73
2022/04/10 12:20:08;;;;;;;4.50;2.05;;;10.00;79.60;;;;;;5037919;28;20021;-74
2022/04/10 12:22:35;;;;;;;5.93;2.70;;;10.10;78.20;;;;;;5041687;28;20044;-73
2022/04/10 12:25:01;;;;;;;5.18;2.75;;;10.40;78.50;;;;;;5036127;28;20099;-72
2022/04/10 12:27:27;;;;;;;6.00;2.40;;;10.50;78.50;;;;;;5036672;28;20028;-74
2022/04/10 12:29:55;;;;;;;4.78;2.33;;;10.70;76.40;;;;;;5044868;28;20968;-74
2022/04/10 12:32:22;;;;;;;3.38;2.03;;;10.80;74.70;;;;;;5047523;28;20052;-73
2022/04/10 12:34:47;;;;;;;6.60;2.15;;;10.80;72.00;;;;;;5045967;28;20140;-73
2022/04/10 12:37:14;;;;;;;7.18;3.28;;;10.80;71.70;;;;;;5042183;28;20033;-75
2022/04/10 12:39:41;;;;;;;7.47;3.30;;;10.90;71.10;;;;;;5043904;28;20102;-73
2022/04/10 12:42:13;;;;;;;6.55;2.40;;;10.90;71.40;;;;;;5044180;28;20064;-74
2022/04/10 12:44:40;;;;;;;3.72;1.77;;;11.00;72.20;;;;;;5044711;28;20021;-74
2022/04/10 12:47:07;;;;;;;2.80;1.90;;;11.00;71.40;;;;;;5043438;28;20024;-74
2022/04/10 12:49:34;;;;;;;5.00;1.70;;;11.00;71.40;;;;;;5060605;28;20033;-70
2022/04/10 12:52:03;;;;;;;5.22;2.10;;;11.00;71.40;;;;;;5042189;28;20467;-75
2022/04/10 12:54:41;;;;;;;4.80;1.83;;;11.00;71.80;;;;;;5037551;28;20029;-73
2022/04/10 12:57:09;;;;;;;6.13;3.20;;;11.00;71.90;;;;;;5042548;28;20033;-75
2022/04/10 12:59:50;;;;;;;4.35;2.08;;;10.90;71.80;;;;;;5042550;28;20033;-74
2022/04/10 13:02:38;;;;;;;5.38;1.80;;;10.90;72.30;;;;;;5041009;28;20021;-74
2022/04/10 13:05:13;;;;;;;4.30;2.10;;;10.80;72.80;;;;;;5040635;28;20028;-75
2022/04/10 13:08:00;;;;;;;7.80;3.08;;;10.70;73.70;;;;;;5040571;28;20025;-73